Time;durP1;ratioP1;P1;durP2;ratioP2;P2;SDS_P1;SDS_P2;PMS_P1;PMS_P2;Temp;Humidity;BMP_temperature;BMP_pressure;BME280_temperature;BME280_humidity;BME280_pressure;Samples;Min_cycle;Max_cycle;Signal;HPM_P1;HPM_P2
2023/12/02 00:02:05;;;;;;;967.63;113.32;;;;;;;;;;6132282;22;20016;-85
2023/12/02 00:04:32;;;;;;;929.15;107.78;;;;;;;;;;6106303;22;20027;-85
2023/12/02 00:06:58;;;;;;;973.90;112.72;;;;;;;;;;6131368;22;20016;-85
2023/12/02 00:09:25;;;;;;;947.50;113.13;;;;;;;;;;6130849;22;20015;-86
2023/12/02 00:11:52;;;;;;;944.58;110.75;;;;;;;;;;6132281;22;20011;-85
2023/12/02 00:14:19;;;;;;;990.35;116.07;;;;;;;;;;6131111;22;20162;-85
2023/12/02 00:16:45;;;;;;;947.80;112.95;;;;;;;;;;6131532;22;20114;-85
2023/12/02 00:19:12;;;;;;;952.50;112.63;;;;;;;;;;6129883;22;20027;-85
2023/12/02 00:21:39;;;;;;;930.40;109.60;;;;;;;;;;6131675;22;20027;-85
2023/12/02 00:24:06;;;;;;;935.35;111.93;;;;;;;;;;6131492;22;20019;-85
2023/12/02 00:26:33;;;;;;;952.22;113.95;;;;;;;;;;6132507;22;20826;-86
2023/12/02 00:29:00;;;;;;;943.17;109.40;;;;;;;;;;6132049;22;20011;-85
2023/12/02 00:31:26;;;;;;;999.85;115.95;;;;;;;;;;6131459;22;20011;-85
2023/12/02 00:33:53;;;;;;;929.65;108.97;;;;;;;;;;6132669;22;20826;-85
2023/12/02 00:36:20;;;;;;;959.25;109.22;;;;;;;;;;6132526;22;20020;-86
2023/12/02 00:38:47;;;;;;;937.15;106.95;;;;;;;;;;6108944;22;20101;-85
2023/12/02 00:41:13;;;;;;;932.03;109.05;;;;;;;;;;6134054;22;20020;-86
2023/12/02 00:43:40;;;;;;;937.13;109.95;;;;;;;;;;6134112;22;20020;-85
2023/12/02 00:46:07;;;;;;;939.88;107.13;;;;;;;;;;6130759;22;20953;-85
2023/12/02 00:48:33;;;;;;;938.83;109.47;;;;;;;;;;6131562;22;20030;-85
2023/12/02 00:51:00;;;;;;;964.28;110.25;;;;;;;;;;6131886;22;20023;-85
2023/12/02 00:53:27;;;;;;;1034.85;119.95;;;;;;;;;;6133545;22;20011;-85
2023/12/02 00:55:54;;;;;;;952.58;114.80;;;;;;;;;;6084498;22;20019;-85
2023/12/02 00:58:23;;;;;;;926.40;106.88;;;;;;;;;;6133013;22;20027;-86
2023/12/02 01:01:03;;;;;;;914.95;103.70;;;;;;;;;;6132435;22;20105;-86
2023/12/02 01:03:30;;;;;;;978.03;108.57;;;;;;;;;;6132584;22;20027;-86
2023/12/02 01:05:57;;;;;;;928.05;100.13;;;;;;;;;;6131020;22;20872;-85
2023/12/02 01:08:24;;;;;;;985.17;105.13;;;;;;;;;;6132094;22;20020;-85
2023/12/02 01:10:50;;;;;;;894.88;93.13;;;;;;;;;;6135043;22;20016;-85
2023/12/02 01:13:17;;;;;;;863.08;91.13;;;;;;;;;;6133954;22;20026;-86
2023/12/02 01:15:43;;;;;;;917.20;97.35;;;;;;;;;;6132297;22;20027;-85
2023/12/02 01:18:10;;;;;;;908.65;96.65;;;;;;;;;;6132938;22;20012;-85
2023/12/02 01:20:38;;;;;;;963.17;107.68;;;;;;;;;;6134690;22;20015;-85
2023/12/02 01:23:04;;;;;;;929.92;102.55;;;;;;;;;;6109145;22;20071;-85
2023/12/02 01:25:31;;;;;;;964.58;105.85;;;;;;;;;;6134365;22;21143;-86
2023/12/02 01:27:57;;;;;;;901.58;99.28;;;;;;;;;;6107323;22;20193;-85
2023/12/02 01:30:24;;;;;;;944.80;104.65;;;;;;;;;;6108612;22;20016;-85
2023/12/02 01:32:51;;;;;;;1132.90;125.15;;;;;;;;;;6129609;22;20037;-85
2023/12/02 01:35:18;;;;;;;928.05;101.53;;;;;;;;;;6134303;22;20023;-86
2023/12/02 01:37:45;;;;;;;926.00;100.05;;;;;;;;;;6136833;22;20117;-85
2023/12/02 01:40:12;;;;;;;936.80;101.30;;;;;;;;;;6136391;22;21040;-86
2023/12/02 01:42:39;;;;;;;891.58;94.95;;;;;;;;;;6135957;22;20019;-86
2023/12/02 01:45:06;;;;;;;907.22;96.60;;;;;;;;;;6108744;22;20030;-85
2023/12/02 01:47:35;;;;;;;956.17;103.65;;;;;;;;;;6110199;22;20065;-85
2023/12/02 01:50:03;;;;;;;893.28;96.38;;;;;;;;;;6137618;22;20022;-85
2023/12/02 01:52:30;;;;;;;897.92;97.72;;;;;;;;;;6135603;22;20016;-85
2023/12/02 01:54:57;;;;;;;953.33;101.20;;;;;;;;;;6135120;22;20015;-86
2023/12/02 01:57:23;;;;;;;901.45;95.30;;;;;;;;;;6136690;22;20023;-86
2023/12/02 01:59:54;;;;;;;893.05;95.15;;;;;;;;;;6060400;22;20023;-86
2023/12/02 02:02:21;;;;;;;974.67;105.80;;;;;;;;;;6117167;22;20101;-87
2023/12/02 02:04:48;;;;;;;918.88;100.10;;;;;;;;;;6127476;22;21016;-87
2023/12/02 02:07:16;;;;;;;903.92;99.35;;;;;;;;;;6105530;22;20122;-86
2023/12/02 02:09:47;;;;;;;940.00;104.60;;;;;;;;;;6130563;22;20019;-87
2023/12/02 02:12:14;;;;;;;936.78;105.97;;;;;;;;;;6130310;22;20016;-87
2023/12/02 02:14:41;;;;;;;923.50;107.22;;;;;;;;;;6106157;22;20016;-86
2023/12/02 02:17:07;;;;;;;923.90;106.25;;;;;;;;;;6131671;22;20024;-87
2023/12/02 02:19:34;;;;;;;927.13;107.65;;;;;;;;;;6130866;22;20016;-86
2023/12/02 02:22:01;;;;;;;930.20;110.07;;;;;;;;;;6132368;22;20050;-86
2023/12/02 02:24:28;;;;;;;930.72;109.07;;;;;;;;;;6105256;22;20027;-86
2023/12/02 02:26:55;;;;;;;906.50;102.97;;;;;;;;;;6133586;22;20012;-87
2023/12/02 02:29:21;;;;;;;928.70;107.88;;;;;;;;;;6140197;22;20505;-86
2023/12/02 02:31:49;;;;;;;847.58;98.70;;;;;;;;;;6142832;22;20976;-86
2023/12/02 02:34:15;;;;;;;893.47;102.88;;;;;;;;;;6144892;22;20936;-87
2023/12/02 02:36:42;;;;;;;855.53;106.38;;;;;;;;;;6147303;22;20012;-88
2023/12/02 02:39:10;;;;;;;818.92;95.70;;;;;;;;;;6145623;22;20019;-86
2023/12/02 02:41:37;;;;;;;911.63;102.90;;;;;;;;;;6145433;22;20023;-87
2023/12/02 02:44:04;;;;;;;805.15;94.07;;;;;;;;;;6148517;22;20029;-86
2023/12/02 02:46:31;;;;;;;837.70;95.22;;;;;;;;;;6119407;22;20019;-86
2023/12/02 02:48:58;;;;;;;851.13;96.25;;;;;;;;;;6119667;22;21007;-87
2023/12/02 02:51:24;;;;;;;815.85;91.05;;;;;;;;;;6147546;22;20114;-87
2023/12/02 02:53:51;;;;;;;862.45;97.88;;;;;;;;;;6120536;22;20881;-87
2023/12/02 02:56:19;;;;;;;876.40;100.28;;;;;;;;;;6146037;22;20050;-87
2023/12/02 02:58:46;;;;;;;866.97;99.22;;;;;;;;;;6142576;22;20232;-87
2023/12/02 03:01:13;;;;;;;827.13;94.70;;;;;;;;;;6143717;22;20221;-87
2023/12/02 03:03:40;;;;;;;872.72;97.32;;;;;;;;;;6118335;22;21170;-87
2023/12/02 03:06:06;;;;;;;872.55;98.50;;;;;;;;;;6139907;22;20948;-87
2023/12/02 03:08:34;;;;;;;946.63;107.43;;;;;;;;;;6135655;22;20943;-86
2023/12/02 03:11:01;;;;;;;937.58;104.50;;;;;;;;;;6108438;22;20073;-86
2023/12/02 03:13:28;;;;;;;919.10;107.65;;;;;;;;;;6131738;22;20884;-86
2023/12/02 03:15:55;;;;;;;920.97;104.57;;;;;;;;;;6130740;22;20915;-87
2023/12/02 03:18:23;;;;;;;936.83;108.20;;;;;;;;;;6130911;22;20016;-87
2023/12/02 03:20:51;;;;;;;954.42;108.13;;;;;;;;;;6129906;22;20093;-86
2023/12/02 03:23:17;;;;;;;946.42;106.20;;;;;;;;;;6130248;22;21168;-86
2023/12/02 03:25:45;;;;;;;927.95;103.25;;;;;;;;;;6103675;22;20027;-87
2023/12/02 03:28:12;;;;;;;946.90;106.03;;;;;;;;;;6128925;22;20020;-86
2023/12/02 03:30:39;;;;;;;906.45;102.45;;;;;;;;;;6130204;22;20026;-87
2023/12/02 03:33:06;;;;;;;912.63;101.78;;;;;;;;;;6129412;22;20016;-87
2023/12/02 03:35:33;;;;;;;1014.97;116.72;;;;;;;;;;6103031;22;20015;-87
2023/12/02 03:38:01;;;;;;;903.08;102.30;;;;;;;;;;6131702;22;20023;-87
2023/12/02 03:40:28;;;;;;;897.67;101.38;;;;;;;;;;6130797;22;20020;-87
2023/12/02 03:42:55;;;;;;;952.58;107.82;;;;;;;;;;6130337;22;20811;-86
2023/12/02 03:45:21;;;;;;;938.75;107.25;;;;;;;;;;6131419;22;20118;-87
2023/12/02 03:47:48;;;;;;;940.60;109.45;;;;;;;;;;6103698;22;20153;-87
2023/12/02 03:50:15;;;;;;;913.15;106.78;;;;;;;;;;6131502;22;20813;-85
2023/12/02 03:52:44;;;;;;;928.00;107.40;;;;;;;;;;6130977;22;21086;-86
2023/12/02 03:55:10;;;;;;;919.35;103.20;;;;;;;;;;6128750;22;20115;-86
2023/12/02 03:57:37;;;;;;;949.85;104.85;;;;;;;;;;6129415;22;20023;-86
2023/12/02 04:00:11;;;;;;;896.25;100.07;;;;;;;;;;6128915;22;20073;-86
2023/12/02 04:02:39;;;;;;;893.42;100.15;;;;;;;;;;6137470;22;20086;-86
2023/12/02 04:05:09;;;;;;;851.00;92.28;;;;;;;;;;6142864;22;20928;-86
2023/12/02 04:07:36;;;;;;;877.60;97.93;;;;;;;;;;6141272;22;20020;-86
2023/12/02 04:10:03;;;;;;;830.08;94.22;;;;;;;;;;6142824;22;20049;-87
2023/12/02 04:12:32;;;;;;;885.42;100.07;;;;;;;;;;6140507;22;20016;-86
2023/12/02 04:14:58;;;;;;;938.88;106.22;;;;;;;;;;6136442;22;20016;-86
2023/12/02 04:17:28;;;;;;;954.08;108.30;;;;;;;;;;6135758;22;20020;-87
2023/12/02 04:19:55;;;;;;;870.58;100.68;;;;;;;;;;6138690;22;20019;-86
2023/12/02 04:22:22;;;;;;;894.72;101.07;;;;;;;;;;6109991;22;20011;-87
2023/12/02 04:24:49;;;;;;;911.20;106.63;;;;;;;;;;6135426;22;20019;-87
2023/12/02 04:27:16;;;;;;;872.55;99.78;;;;;;;;;;6135642;22;20104;-87
2023/12/02 04:29:43;;;;;;;925.22;104.72;;;;;;;;;;6136848;22;20082;-87
2023/12/02 04:32:09;;;;;;;915.80;107.53;;;;;;;;;;6136633;22;20073;-87
2023/12/02 04:34:36;;;;;;;899.80;105.43;;;;;;;;;;6135307;22;20023;-87
2023/12/02 04:37:03;;;;;;;901.85;104.40;;;;;;;;;;6108162;22;20027;-86
2023/12/02 04:39:30;;;;;;;915.25;105.60;;;;;;;;;;6134130;22;20030;-86
2023/12/02 04:41:57;;;;;;;883.65;102.18;;;;;;;;;;6135915;22;20020;-86
2023/12/02 04:44:24;;;;;;;930.00;109.32;;;;;;;;;;6135638;22;20027;-86
2023/12/02 04:46:50;;;;;;;928.13;108.40;;;;;;;;;;6135615;22;21047;-86
2023/12/02 04:49:17;;;;;;;889.08;102.72;;;;;;;;;;6135264;22;20118;-87
2023/12/02 04:51:44;;;;;;;903.80;105.00;;;;;;;;;;6134178;22;20912;-86
2023/12/02 04:54:10;;;;;;;948.90;107.93;;;;;;;;;;6134039;22;20118;-86
2023/12/02 04:56:38;;;;;;;901.72;105.32;;;;;;;;;;6134428;22;20085;-86
2023/12/02 04:59:04;;;;;;;889.92;102.13;;;;;;;;;;6135388;22;20070;-85
2023/12/02 05:01:31;;;;;;;898.65;103.60;;;;;;;;;;6133203;22;20022;-86
2023/12/02 05:03:58;;;;;;;892.42;103.35;;;;;;;;;;6106430;22;20474;-87
2023/12/02 05:06:25;;;;;;;899.38;103.63;;;;;;;;;;6134126;22;20020;-86
2023/12/02 05:08:51;;;;;;;945.60;108.40;;;;;;;;;;6133774;22;20031;-86
2023/12/02 05:11:21;;;;;;;894.33;104.05;;;;;;;;;;6134021;22;20030;-86
2023/12/02 05:13:48;;;;;;;895.95;105.53;;;;;;;;;;6137065;22;20015;-86
2023/12/02 05:16:15;;;;;;;930.65;108.05;;;;;;;;;;6109076;22;20023;-86
2023/12/02 05:18:42;;;;;;;891.22;106.15;;;;;;;;;;6135893;22;20020;-86
2023/12/02 05:21:09;;;;;;;903.40;104.35;;;;;;;;;;6136369;22;20023;-86
2023/12/02 05:23:36;;;;;;;933.15;107.82;;;;;;;;;;6137075;22;21133;-86
2023/12/02 05:26:03;;;;;;;908.10;104.80;;;;;;;;;;6137116;22;20011;-86
2023/12/02 05:28:30;;;;;;;905.95;104.50;;;;;;;;;;6136441;22;20909;-86
2023/12/02 05:30:57;;;;;;;925.58;108.15;;;;;;;;;;6108801;22;20047;-86
2023/12/02 05:33:23;;;;;;;1038.03;119.40;;;;;;;;;;6129341;22;20020;-86
2023/12/02 05:35:50;;;;;;;918.30;107.53;;;;;;;;;;6105976;22;20020;-86
2023/12/02 05:38:17;;;;;;;949.40;109.85;;;;;;;;;;6135553;22;20046;-86
2023/12/02 05:40:43;;;;;;;900.70;104.35;;;;;;;;;;6137850;22;20035;-85
2023/12/02 05:43:11;;;;;;;886.38;104.03;;;;;;;;;;6136236;22;21049;-86
2023/12/02 05:45:40;;;;;;;937.70;112.75;;;;;;;;;;6140838;22;20016;-86
2023/12/02 05:48:06;;;;;;;908.45;106.82;;;;;;;;;;6084224;22;20046;-86
2023/12/02 05:50:33;;;;;;;948.55;110.15;;;;;;;;;;6135916;22;20020;-86
2023/12/02 05:53:00;;;;;;;928.97;106.82;;;;;;;;;;6136772;22;20185;-86
2023/12/02 05:55:26;;;;;;;897.33;104.38;;;;;;;;;;6109027;22;20016;-87
2023/12/02 05:57:53;;;;;;;893.42;104.95;;;;;;;;;;6134130;22;20078;-87
2023/12/02 06:00:20;;;;;;;934.33;113.45;;;;;;;;;;6135204;22;20024;-86
2023/12/02 06:02:48;;;;;;;919.78;112.43;;;;;;;;;;6132575;22;21023;-86
2023/12/02 06:05:14;;;;;;;884.13;104.60;;;;;;;;;;6135347;22;20015;-86
2023/12/02 06:07:43;;;;;;;952.35;113.25;;;;;;;;;;6134183;22;20016;-86
2023/12/02 06:10:09;;;;;;;911.10;106.88;;;;;;;;;;6135239;22;20039;-87
2023/12/02 06:12:36;;;;;;;892.33;103.32;;;;;;;;;;6136727;22;20026;-86
2023/12/02 06:15:03;;;;;;;918.85;104.60;;;;;;;;;;6135066;22;20011;-86
2023/12/02 06:17:31;;;;;;;966.88;109.60;;;;;;;;;;6109036;22;20026;-86
2023/12/02 06:19:58;;;;;;;862.05;98.82;;;;;;;;;;6110456;22;21266;-86
2023/12/02 06:22:25;;;;;;;885.63;103.03;;;;;;;;;;6136703;22;20835;-86
2023/12/02 06:24:52;;;;;;;906.83;106.30;;;;;;;;;;6136065;22;20042;-86
2023/12/02 06:27:20;;;;;;;873.72;98.07;;;;;;;;;;6135865;22;21084;-86
2023/12/02 06:29:47;;;;;;;888.70;102.32;;;;;;;;;;6137379;22;21006;-86
2023/12/02 06:32:13;;;;;;;945.90;107.15;;;;;;;;;;6136146;22;20016;-86
2023/12/02 06:34:40;;;;;;;869.28;99.40;;;;;;;;;;6136830;22;20122;-86
2023/12/02 06:37:07;;;;;;;882.88;99.05;;;;;;;;;;6135001;22;20024;-86
2023/12/02 06:39:34;;;;;;;910.25;102.47;;;;;;;;;;6134147;22;20019;-86
2023/12/02 06:42:01;;;;;;;874.60;99.95;;;;;;;;;;6135568;22;20848;-86
2023/12/02 06:44:27;;;;;;;932.45;106.40;;;;;;;;;;6136632;22;20024;-86
2023/12/02 06:46:54;;;;;;;924.47;103.38;;;;;;;;;;6137199;22;21018;-86
2023/12/02 06:49:22;;;;;;;895.75;105.60;;;;;;;;;;6137433;22;20027;-86
2023/12/02 06:51:48;;;;;;;889.35;101.43;;;;;;;;;;6136732;22;20105;-87
2023/12/02 06:54:16;;;;;;;842.10;95.65;;;;;;;;;;6140717;22;20857;-86
2023/12/02 06:56:42;;;;;;;904.58;105.85;;;;;;;;;;6143176;22;20118;-86
2023/12/02 06:59:09;;;;;;;837.00;96.53;;;;;;;;;;6144938;22;20031;-86
2023/12/02 07:01:36;;;;;;;850.65;97.28;;;;;;;;;;6144695;22;20094;-86
2023/12/02 07:04:04;;;;;;;815.50;95.07;;;;;;;;;;6146989;22;20027;-86
2023/12/02 07:06:31;;;;;;;807.97;93.05;;;;;;;;;;6148072;22;20024;-86
2023/12/02 07:08:58;;;;;;;851.83;97.53;;;;;;;;;;6149524;22;20194;-86
2023/12/02 07:11:25;;;;;;;850.05;98.10;;;;;;;;;;6148069;22;20011;-85
2023/12/02 07:13:51;;;;;;;767.47;89.10;;;;;;;;;;6174523;22;20030;-86
2023/12/02 07:16:18;;;;;;;750.75;87.55;;;;;;;;;;6130002;22;20011;-87
2023/12/02 07:18:45;;;;;;;877.70;100.50;;;;;;;;;;6110650;22;20122;-87
2023/12/02 07:21:12;;;;;;;942.00;106.68;;;;;;;;;;6130716;22;20046;-86
2023/12/02 07:23:39;;;;;;;926.78;103.65;;;;;;;;;;6125120;22;20997;-85
2023/12/02 07:26:06;;;;;;;885.20;101.68;;;;;;;;;;6136521;22;20011;-84
2023/12/02 07:28:32;;;;;;;870.75;100.20;;;;;;;;;;6116812;22;20047;-87
2023/12/02 07:30:59;;;;;;;863.95;97.75;;;;;;;;;;6148023;22;20220;-86
2023/12/02 07:33:26;;;;;;;899.65;103.00;;;;;;;;;;6142398;22;20904;-85
2023/12/02 07:35:53;;;;;;;893.60;103.22;;;;;;;;;;6133605;22;20908;-86
2023/12/02 07:38:19;;;;;;;851.65;98.35;;;;;;;;;;6140780;22;20912;-88
2023/12/02 07:40:46;;;;;;;895.22;107.25;;;;;;;;;;6108328;22;20016;-85
2023/12/02 07:43:14;;;;;;;910.33;106.22;;;;;;;;;;6133652;22;20855;-85
2023/12/02 07:45:41;;;;;;;923.00;109.90;;;;;;;;;;6107804;22;20266;-85
2023/12/02 07:48:10;;;;;;;914.67;110.72;;;;;;;;;;6132309;22;20923;-87
2023/12/02 07:50:37;;;;;;;1043.97;126.43;;;;;;;;;;6117686;22;20845;-86
2023/12/02 07:53:04;;;;;;;903.50;109.32;;;;;;;;;;6139719;22;20419;-86
2023/12/02 07:55:31;;;;;;;951.42;119.43;;;;;;;;;;6083979;22;20034;-84
2023/12/02 07:57:57;;;;;;;968.15;119.20;;;;;;;;;;6089899;22;20955;-84
2023/12/02 08:00:24;;;;;;;1017.08;123.18;;;;;;;;;;6116272;22;20045;-85
2023/12/02 08:02:51;;;;;;;1023.47;126.88;;;;;;;;;;6112821;22;20961;-85
2023/12/02 08:05:17;;;;;;;896.58;110.43;;;;;;;;;;6119263;22;20016;-88
2023/12/02 08:07:47;;;;;;;892.17;111.50;;;;;;;;;;6145646;22;20020;-85
2023/12/02 08:10:15;;;;;;;924.10;115.07;;;;;;;;;;6104612;22;20050;-85
2023/12/02 08:12:42;;;;;;;891.75;108.05;;;;;;;;;;6134395;22;20908;-85
2023/12/02 08:15:09;;;;;;;878.05;104.93;;;;;;;;;;6134262;22;20027;-85
2023/12/02 08:17:35;;;;;;;967.65;118.82;;;;;;;;;;6138079;22;21113;-87
2023/12/02 08:20:05;;;;;;;915.30;109.90;;;;;;;;;;6125969;22;20806;-87
2023/12/02 08:22:32;;;;;;;890.42;107.78;;;;;;;;;;6133567;22;20022;-87
2023/12/02 08:24:59;;;;;;;943.83;114.43;;;;;;;;;;6132103;22;20027;-87
2023/12/02 08:27:26;;;;;;;912.20;109.22;;;;;;;;;;6134200;22;20173;-87
2023/12/02 08:29:52;;;;;;;921.72;112.43;;;;;;;;;;6107117;22;20038;-87
2023/12/02 08:32:19;;;;;;;914.28;110.43;;;;;;;;;;6107696;22;20023;-87
2023/12/02 08:34:46;;;;;;;912.17;113.63;;;;;;;;;;6137157;22;20120;-87
2023/12/02 08:37:13;;;;;;;896.42;110.15;;;;;;;;;;6112393;22;21038;-87
2023/12/02 08:39:40;;;;;;;938.05;113.20;;;;;;;;;;6132623;22;20018;-87
2023/12/02 08:42:06;;;;;;;928.92;112.47;;;;;;;;;;6106201;22;20050;-87
2023/12/02 08:44:33;;;;;;;957.00;113.68;;;;;;;;;;6133738;22;20941;-87
2023/12/02 08:47:01;;;;;;;923.22;114.00;;;;;;;;;;6108892;22;20030;-87
2023/12/02 08:49:28;;;;;;;926.78;112.63;;;;;;;;;;6134896;22;20015;-87
2023/12/02 08:51:55;;;;;;;936.97;115.65;;;;;;;;;;6113339;22;20118;-87
2023/12/02 08:54:22;;;;;;;966.83;117.72;;;;;;;;;;6102048;22;20016;-87
2023/12/02 08:56:49;;;;;;;976.22;120.45;;;;;;;;;;6102613;22;20098;-87
2023/12/02 08:59:16;;;;;;;932.95;113.95;;;;;;;;;;6129879;22;20049;-87
2023/12/02 09:01:43;;;;;;;953.67;114.32;;;;;;;;;;6128163;22;20066;-87
2023/12/02 09:04:10;;;;;;;970.35;116.80;;;;;;;;;;6128343;22;21015;-87
2023/12/02 09:06:38;;;;;;;958.17;118.00;;;;;;;;;;6128918;22;20103;-87
2023/12/02 09:09:07;;;;;;;974.10;119.00;;;;;;;;;;6128612;22;20020;-87
2023/12/02 09:11:34;;;;;;;1035.18;126.85;;;;;;;;;;6129345;22;21056;-87
2023/12/02 09:14:01;;;;;;;952.28;120.32;;;;;;;;;;6104983;22;20026;-86
2023/12/02 09:16:28;;;;;;;953.40;116.82;;;;;;;;;;6101069;22;20030;-87
2023/12/02 09:18:55;;;;;;;997.67;121.38;;;;;;;;;;6127562;22;20020;-87
2023/12/02 09:21:28;;;;;;;951.30;118.03;;;;;;;;;;6099783;22;20157;-87
2023/12/02 09:23:57;;;;;;;938.38;115.38;;;;;;;;;;6102132;22;20858;-86
2023/12/02 09:26:34;;;;;;;955.08;114.60;;;;;;;;;;6127291;22;20042;-86
2023/12/02 09:29:02;;;;;;;956.78;112.47;;;;;;;;;;6128499;22;20027;-86
2023/12/02 09:31:29;;;;;;;961.63;116.85;;;;;;;;;;6126063;22;20083;-86
2023/12/02 09:33:59;;;;;;;943.83;115.90;;;;;;;;;;6126235;22;20942;-86
2023/12/02 09:36:34;;;;;;;942.85;114.43;;;;;;;;;;6105819;22;21065;-86
2023/12/02 09:39:23;;;;;;;1024.47;123.25;;;;;;;;;;6101761;22;21156;-86
2023/12/02 09:41:51;;;;;;;946.25;114.70;;;;;;;;;;6127311;22;20019;-86
2023/12/02 09:44:26;;;;;;;965.83;114.13;;;;;;;;;;6134542;22;20011;-86
2023/12/02 09:47:03;;;;;;;975.65;119.10;;;;;;;;;;6102401;22;20113;-86
2023/12/02 09:49:57;;;;;;;948.33;117.20;;;;;;;;;;6127557;22;20012;-87
2023/12/02 09:52:31;;;;;;;951.47;115.93;;;;;;;;;;6092005;22;20031;-87
2023/12/02 09:55:10;;;;;;;955.40;112.93;;;;;;;;;;6119377;22;20113;-87
2023/12/02 09:57:37;;;;;;;960.90;114.55;;;;;;;;;;6100745;22;20020;-86
2023/12/02 10:00:09;;;;;;;939.55;113.00;;;;;;;;;;6126892;22;20097;-86
2023/12/02 10:02:38;;;;;;;985.65;119.07;;;;;;;;;;6127072;22;20868;-87
2023/12/02 10:05:12;;;;;;;928.30;112.72;;;;;;;;;;6127617;22;20159;-86
2023/12/02 10:07:39;;;;;;;933.95;114.78;;;;;;;;;;6100642;22;20585;-86
2023/12/02 10:10:10;;;;;;;937.38;112.07;;;;;;;;;;6101487;22;20058;-87
2023/12/02 10:12:54;;;;;;;954.17;112.82;;;;;;;;;;6125757;22;20031;-86
2023/12/02 10:15:22;;;;;;;935.72;113.25;;;;;;;;;;6100724;22;20019;-87
2023/12/02 10:17:51;;;;;;;932.13;111.20;;;;;;;;;;6129929;22;20019;-87
2023/12/02 10:20:23;;;;;;;969.63;110.85;;;;;;;;;;6103458;22;20824;-86
2023/12/02 10:22:54;;;;;;;974.30;118.28;;;;;;;;;;6130634;22;20022;-87
2023/12/02 10:25:31;;;;;;;927.25;113.07;;;;;;;;;;6127205;22;20015;-87
2023/12/02 10:28:05;;;;;;;928.78;110.97;;;;;;;;;;6101418;22;20020;-87
2023/12/02 10:30:35;;;;;;;938.90;112.63;;;;;;;;;;6101371;22;20085;-87
2023/12/02 10:33:05;;;;;;;984.08;122.60;;;;;;;;;;6127313;22;20023;-87
2023/12/02 10:35:46;;;;;;;1039.72;128.60;;;;;;;;;;6125343;22;21131;-87
2023/12/02 10:38:27;;;;;;;937.90;106.18;;;;;;;;;;6107145;22;20016;-87
2023/12/02 10:41:02;;;;;;;989.60;115.60;;;;;;;;;;6101832;22;20093;-87
2023/12/02 10:43:39;;;;;;;930.35;110.15;;;;;;;;;;6126226;22;21156;-87
2023/12/02 10:46:07;;;;;;;930.38;109.55;;;;;;;;;;6126071;22;20012;-87
2023/12/02 10:48:38;;;;;;;935.67;110.25;;;;;;;;;;6127998;22;20118;-87
2023/12/02 10:51:06;;;;;;;929.47;109.65;;;;;;;;;;6127095;22;20118;-87
2023/12/02 10:53:35;;;;;;;927.33;108.47;;;;;;;;;;6116522;22;20035;-86
2023/12/02 10:56:07;;;;;;;932.88;109.53;;;;;;;;;;6134608;22;20021;-87
2023/12/02 10:58:35;;;;;;;873.90;102.78;;;;;;;;;;6134328;22;20552;-86
2023/12/02 11:01:05;;;;;;;947.65;111.43;;;;;;;;;;6129493;22;20012;-87
2023/12/02 11:03:37;;;;;;;924.83;108.97;;;;;;;;;;6126604;22;20020;-86
2023/12/02 11:06:07;;;;;;;942.75;104.22;;;;;;;;;;6126011;22;20078;-87
2023/12/02 11:08:47;;;;;;;961.58;108.68;;;;;;;;;;6099542;22;20016;-86
2023/12/02 11:11:18;;;;;;;936.42;101.80;;;;;;;;;;6099982;22;21080;-86
2023/12/02 11:13:47;;;;;;;910.33;102.60;;;;;;;;;;6128659;22;21113;-86
2023/12/02 11:16:19;;;;;;;962.25;108.30;;;;;;;;;;6125823;22;20089;-86
2023/12/02 11:18:52;;;;;;;896.28;102.03;;;;;;;;;;6134312;22;21037;-92
2023/12/02 11:21:31;;;;;;;918.38;106.10;;;;;;;;;;6134125;22;20028;-85
2023/12/02 11:24:05;;;;;;;931.13;107.47;;;;;;;;;;6127549;22;20019;-85
2023/12/02 11:26:39;;;;;;;969.53;109.90;;;;;;;;;;6130259;22;20020;-85
2023/12/02 11:29:12;;;;;;;980.58;113.45;;;;;;;;;;6125522;22;20022;-85
2023/12/02 11:32:03;;;;;;;951.70;112.25;;;;;;;;;;6097527;22;20034;-86
2023/12/02 11:34:35;;;;;;;941.00;121.15;;;;;;;;;;6126031;22;21033;-86
2023/12/02 11:37:08;;;;;;;961.92;122.25;;;;;;;;;;6111383;22;20023;-86
2023/12/02 11:39:40;;;;;;;843.50;103.32;;;;;;;;;;6140841;22;20015;-87
2023/12/02 11:42:13;;;;;;;922.35;115.28;;;;;;;;;;6120419;22;21155;-86
2023/12/02 11:44:40;;;;;;;1133.03;136.20;;;;;;;;;;6110945;22;21055;-87
2023/12/02 11:47:19;;;;;;;993.65;122.70;;;;;;;;;;6068919;22;20050;-87
2023/12/02 11:50:07;;;;;;;902.88;114.00;;;;;;;;;;6075198;22;20020;-87
2023/12/02 11:53:07;;;;;;;898.90;115.05;;;;;;;;;;6129736;22;21155;-87
2023/12/02 11:55:34;;;;;;;919.25;107.40;;;;;;;;;;5984551;23;20124;-86
2023/12/02 11:58:23;;;;;;;853.40;103.85;;;;;;;;;;5986128;23;20022;-89
2023/12/02 12:01:08;;;;;;;950.83;109.28;;;;;;;;;;5981339;23;20018;-86
2023/12/02 12:03:45;;;;;;;861.67;98.75;;;;;;;;;;5954564;23;20026;-86
2023/12/02 12:06:26;;;;;;;933.38;109.97;;;;;;;;;;5951741;23;20176;-86
2023/12/02 12:09:02;;;;;;;976.63;116.75;;;;;;;;;;5977550;23;21158;-86
2023/12/02 12:11:31;;;;;;;896.58;106.18;;;;;;;;;;5963653;23;20120;-90
2023/12/02 12:13:59;;;;;;;864.17;102.65;;;;;;;;;;5988442;23;20025;-88
2023/12/02 12:16:26;;;;;;;1271.35;149.48;;;;;;;;;;5977999;23;20078;-88
2023/12/02 12:19:08;;;;;;;940.67;109.57;;;;;;;;;;5867114;23;20022;-84
2023/12/02 12:21:37;;;;;;;763.35;91.18;;;;;;;;;;5980679;23;20026;-87
2023/12/02 12:24:03;;;;;;;942.60;110.28;;;;;;;;;;5955358;23;20026;-87
2023/12/02 12:26:30;;;;;;;917.42;110.57;;;;;;;;;;5978154;23;20058;-87
2023/12/02 12:28:57;;;;;;;948.00;110.20;;;;;;;;;;5954358;23;20026;-87
2023/12/02 12:31:28;;;;;;;873.75;99.43;;;;;;;;;;6061566;22;20998;-89
2023/12/02 12:33:56;;;;;;;894.33;105.80;;;;;;;;;;6138517;22;20049;-88
2023/12/02 12:36:27;;;;;;;871.08;102.20;;;;;;;;;;6132944;22;20011;-89
2023/12/02 12:38:56;;;;;;;859.00;105.28;;;;;;;;;;6152086;22;20015;-91
2023/12/02 12:41:23;;;;;;;823.42;100.95;;;;;;;;;;6158194;22;20016;-90
2023/12/02 12:43:50;;;;;;;814.78;98.22;;;;;;;;;;6145357;22;20011;-91
2023/12/02 12:46:17;;;;;;;830.25;97.95;;;;;;;;;;6145690;22;20022;-90
2023/12/02 12:48:48;;;;;;;828.78;99.38;;;;;;;;;;6146776;22;20134;-89
2023/12/02 12:51:17;;;;;;;829.65;97.15;;;;;;;;;;6143669;22;20023;-88
2023/12/02 12:53:52;;;;;;;886.97;105.10;;;;;;;;;;6132755;22;20021;-89
2023/12/02 12:56:24;;;;;;;858.65;100.68;;;;;;;;;;6117593;22;20762;-87
2023/12/02 12:58:59;;;;;;;1080.88;128.07;;;;;;;;;;6137938;22;20123;-90
2023/12/02 13:01:27;;;;;;;950.13;114.28;;;;;;;;;;6075067;22;20920;-84
2023/12/02 13:03:59;;;;;;;942.55;109.70;;;;;;;;;;6096386;22;20016;-83
2023/12/02 13:06:34;;;;;;;911.33;105.97;;;;;;;;;;6123743;22;20031;-83
2023/12/02 13:09:05;;;;;;;973.35;115.22;;;;;;;;;;6118031;22;20139;-84
2023/12/02 13:11:36;;;;;;;907.42;107.68;;;;;;;;;;6110489;22;20143;-90
2023/12/02 13:14:15;;;;;;;698.97;79.38;;;;;;;;;;6204485;22;20073;-88
2023/12/02 13:16:42;;;;;;;767.47;95.85;;;;;;;;;;6127210;22;20050;-88
2023/12/02 13:19:10;;;;;;;752.75;87.55;;;;;;;;;;6160158;22;21221;-88
2023/12/02 13:21:38;;;;;;;813.15;96.32;;;;;;;;;;6159316;22;20891;-88
2023/12/02 13:24:05;;;;;;;792.42;90.97;;;;;;;;;;6149438;22;20015;-88
2023/12/02 13:26:33;;;;;;;654.25;74.25;;;;;;;;;;6161960;22;20019;-89
2023/12/02 13:29:03;;;;;;;824.65;92.93;;;;;;;;;;6174548;22;20114;-89
2023/12/02 13:31:34;;;;;;;761.25;85.72;;;;;;;;;;6160853;22;20162;-88
2023/12/02 13:34:07;;;;;;;902.20;101.38;;;;;;;;;;6149816;22;20024;-90
2023/12/02 13:36:42;;;;;;;326.33;46.50;;;;;;;;;;6207118;22;20026;-85
2023/12/02 13:39:15;;;;;;;462.77;59.15;;;;;;;;;;6197755;22;20814;-90
2023/12/02 13:41:46;;;;;;;448.45;54.78;;;;;;;;;;6191610;22;20011;-90
2023/12/02 13:44:16;;;;;;;801.85;91.88;;;;;;;;;;6176185;22;20015;-90
2023/12/02 13:47:03;;;;;;;735.40;83.10;;;;;;;;;;6173076;22;20062;-90
2023/12/02 13:49:35;;;;;;;170.00;35.95;;;;;;;;;;6198376;22;20415;-89
2023/12/02 13:52:10;;;;;;;600.20;69.13;;;;;;;;;;6198966;22;20019;-90
2023/12/02 13:54:37;;;;;;;648.08;76.80;;;;;;;;;;6175938;22;20020;-87
2023/12/02 13:57:07;;;;;;;139.40;33.72;;;;;;;;;;6221768;22;20046;-86
2023/12/02 13:59:37;;;;;;;144.27;30.45;;;;;;;;;;6222094;22;20015;-87
2023/12/02 14:02:10;;;;;;;132.73;32.97;;;;;;;;;;6273178;22;20019;-86
2023/12/02 14:04:37;;;;;;;94.63;30.77;;;;;;;;;;6247742;22;20022;-85